sensor_id;sensor_type;location;lat;lon;timestamp;pressure;altitude;pressure_sealevel;temperature;humidity
70437;BME280;57877;39.750;-104.894;2022-07-25T00:01:43;84306.36;;;22.12;44.71
70437;BME280;57877;39.750;-104.894;2022-07-25T00:04:09;84309.68;;;21.96;45.32
70437;BME280;57877;39.750;-104.894;2022-07-25T00:06:35;84313.45;;;21.70;43.82
70437;BME280;57877;39.750;-104.894;2022-07-25T00:09:01;84309.42;;;21.60;44.47
70437;BME280;57877;39.750;-104.894;2022-07-25T00:11:27;84307.13;;;21.69;46.09
70437;BME280;57877;39.750;-104.894;2022-07-25T00:13:53;84301.65;;;21.83;44.37
70437;BME280;57877;39.750;-104.894;2022-07-25T00:16:19;84300.67;;;21.67;47.75
70437;BME280;57877;39.750;-104.894;2022-07-25T00:18:44;84295.80;;;21.50;46.80
70437;BME280;57877;39.750;-104.894;2022-07-25T00:21:09;84296.60;;;21.37;47.81
70437;BME280;57877;39.750;-104.894;2022-07-25T00:23:34;84293.12;;;20.58;48.77
70437;BME280;57877;39.750;-104.894;2022-07-25T00:26:00;84288.15;;;20.70;49.53
70437;BME280;57877;39.750;-104.894;2022-07-25T00:28:26;84283.05;;;20.12;51.44
70437;BME280;57877;39.750;-104.894;2022-07-25T00:30:52;84278.42;;;20.27;51.50
70437;BME280;57877;39.750;-104.894;2022-07-25T00:33:18;84279.61;;;20.79;50.83
70437;BME280;57877;39.750;-104.894;2022-07-25T00:35:43;84274.30;;;20.38;50.83
70437;BME280;57877;39.750;-104.894;2022-07-25T00:38:08;84278.34;;;20.65;50.48
70437;BME280;57877;39.750;-104.894;2022-07-25T00:40:34;84277.93;;;20.58;49.59
70437;BME280;57877;39.750;-104.894;2022-07-25T00:43:00;84278.62;;;20.86;49.48
70437;BME280;57877;39.750;-104.894;2022-07-25T00:45:27;84274.41;;;20.48;48.48
70437;BME280;57877;39.750;-104.894;2022-07-25T00:47:52;84273.16;;;20.37;49.90
70437;BME280;57877;39.750;-104.894;2022-07-25T00:50:18;84269.21;;;19.86;51.07
70437;BME280;57877;39.750;-104.894;2022-07-25T00:52:44;84266.14;;;20.05;50.82
70437;BME280;57877;39.750;-104.894;2022-07-25T00:55:11;84262.38;;;20.34;50.91
70437;BME280;57877;39.750;-104.894;2022-07-25T00:57:36;84261.10;;;20.14;50.95
70437;BME280;57877;39.750;-104.894;2022-07-25T01:00:05;84261.44;;;20.00;52.14
70437;BME280;57877;39.750;-104.894;2022-07-25T01:02:28;84260.95;;;20.18;52.26
70437;BME280;57877;39.750;-104.894;2022-07-25T01:04:54;84257.03;;;20.15;50.23
70437;BME280;57877;39.750;-104.894;2022-07-25T01:07:20;84258.49;;;20.25;49.79
70437;BME280;57877;39.750;-104.894;2022-07-25T01:09:46;84264.03;;;20.61;50.58
70437;BME280;57877;39.750;-104.894;2022-07-25T01:12:12;84265.97;;;20.16;50.12
70437;BME280;57877;39.750;-104.894;2022-07-25T01:14:38;84264.30;;;20.43;50.35
70437;BME280;57877;39.750;-104.894;2022-07-25T01:17:04;84259.70;;;20.52;50.06
70437;BME280;57877;39.750;-104.894;2022-07-25T01:19:30;84256.63;;;20.84;50.05
70437;BME280;57877;39.750;-104.894;2022-07-25T01:21:56;84254.34;;;20.65;48.86
70437;BME280;57877;39.750;-104.894;2022-07-25T01:24:23;84252.72;;;20.95;48.16
70437;BME280;57877;39.750;-104.894;2022-07-25T01:26:49;84241.72;;;21.00;48.36
70437;BME280;57877;39.750;-104.894;2022-07-25T01:29:14;84229.63;;;20.27;49.42
70437;BME280;57877;39.750;-104.894;2022-07-25T01:31:41;84221.44;;;20.24;50.40
70437;BME280;57877;39.750;-104.894;2022-07-25T01:34:07;84220.45;;;20.19;50.15
70437;BME280;57877;39.750;-104.894;2022-07-25T01:36:33;84216.32;;;20.71;50.65
70437;BME280;57877;39.750;-104.894;2022-07-25T01:38:58;84216.36;;;20.58;49.99
70437;BME280;57877;39.750;-104.894;2022-07-25T01:41:25;84219.04;;;20.66;49.40
70437;BME280;57877;39.750;-104.894;2022-07-25T01:43:50;84222.86;;;20.44;48.36
70437;BME280;57877;39.750;-104.894;2022-07-25T01:46:16;84223.55;;;20.80;48.81
70437;BME280;57877;39.750;-104.894;2022-07-25T01:48:42;84217.09;;;20.79;48.55
70437;BME280;57877;39.750;-104.894;2022-07-25T01:51:08;84213.47;;;20.66;48.18
70437;BME280;57877;39.750;-104.894;2022-07-25T01:53:34;84211.77;;;20.80;47.65
70437;BME280;57877;39.750;-104.894;2022-07-25T01:55:59;84208.59;;;21.39;47.88
70437;BME280;57877;39.750;-104.894;2022-07-25T01:58:24;84202.94;;;21.26;46.81
70437;BME280;57877;39.750;-104.894;2022-07-25T02:00:50;84199.48;;;21.17;47.25
70437;BME280;57877;39.750;-104.894;2022-07-25T02:03:16;84196.80;;;21.37;46.26
70437;BME280;57877;39.750;-104.894;2022-07-25T02:05:42;84199.29;;;21.49;46.99
70437;BME280;57877;39.750;-104.894;2022-07-25T02:08:08;84197.87;;;21.06;47.22
70437;BME280;57877;39.750;-104.894;2022-07-25T02:10:38;84191.83;;;21.32;46.61
70437;BME280;57877;39.750;-104.894;2022-07-25T02:12:58;84185.21;;;21.47;46.34
70437;BME280;57877;39.750;-104.894;2022-07-25T02:15:24;84183.51;;;21.26;46.15
70437;BME280;57877;39.750;-104.894;2022-07-25T02:17:50;84177.80;;;21.30;45.44
70437;BME280;57877;39.750;-104.894;2022-07-25T02:20:16;84172.10;;;21.51;45.08
70437;BME280;57877;39.750;-104.894;2022-07-25T02:22:42;84167.87;;;21.06;45.95
70437;BME280;57877;39.750;-104.894;2022-07-25T02:25:07;84164.49;;;21.33;46.16
70437;BME280;57877;39.750;-104.894;2022-07-25T02:27:33;84164.40;;;21.21;45.80
70437;BME280;57877;39.750;-104.894;2022-07-25T02:29:59;84163.10;;;21.37;46.02
70437;BME280;57877;39.750;-104.894;2022-07-25T02:32:25;84161.79;;;21.36;45.42
70437;BME280;57877;39.750;-104.894;2022-07-25T02:34:50;84159.87;;;20.92;45.87
70437;BME280;57877;39.750;-104.894;2022-07-25T02:37:16;84162.87;;;21.07;45.71
70437;BME280;57877;39.750;-104.894;2022-07-25T02:39:41;84170.90;;;20.36;46.75
70437;BME280;57877;39.750;-104.894;2022-07-25T02:42:06;84176.91;;;20.77;47.56
70437;BME280;57877;39.750;-104.894;2022-07-25T02:44:31;84179.06;;;20.46;47.83
70437;BME280;57877;39.750;-104.894;2022-07-25T02:46:57;84175.78;;;20.55;48.50
70437;BME280;57877;39.750;-104.894;2022-07-25T02:49:22;84172.95;;;20.23;48.45
70437;BME280;57877;39.750;-104.894;2022-07-25T02:51:48;84176.28;;;19.65;49.74
70437;BME280;57877;39.750;-104.894;2022-07-25T02:54:13;84183.69;;;19.74;49.90
70437;BME280;57877;39.750;-104.894;2022-07-25T02:56:38;84186.86;;;19.96;49.73
70437;BME280;57877;39.750;-104.894;2022-07-25T02:59:04;84187.23;;;20.31;48.65
70437;BME280;57877;39.750;-104.894;2022-07-25T03:01:30;84189.36;;;20.23;48.73
70437;BME280;57877;39.750;-104.894;2022-07-25T03:03:56;84193.03;;;20.47;48.34
70437;BME280;57877;39.750;-104.894;2022-07-25T03:06:22;84195.29;;;20.54;48.08
70437;BME280;57877;39.750;-104.894;2022-07-25T03:08:47;84198.30;;;20.42;48.12
70437;BME280;57877;39.750;-104.894;2022-07-25T03:11:13;84207.50;;;20.54;48.39
70437;BME280;57877;39.750;-104.894;2022-07-25T03:13:37;84209.11;;;20.34;48.74
70437;BME280;57877;39.750;-104.894;2022-07-25T03:16:02;84209.48;;;20.52;48.31
70437;BME280;57877;39.750;-104.894;2022-07-25T03:18:27;84205.54;;;20.33;48.69
70437;BME280;57877;39.750;-104.894;2022-07-25T03:20:52;84210.59;;;20.58;48.07
70437;BME280;57877;39.750;-104.894;2022-07-25T03:23:18;84202.74;;;20.20;48.18
70437;BME280;57877;39.750;-104.894;2022-07-25T03:25:44;84202.06;;;20.37;47.74
70437;BME280;57877;39.750;-104.894;2022-07-25T03:28:09;84199.58;;;20.75;47.41
70437;BME280;57877;39.750;-104.894;2022-07-25T03:30:34;84193.29;;;20.73;47.13
70437;BME280;57877;39.750;-104.894;2022-07-25T03:32:59;84193.29;;;20.73;47.18
70437;BME280;57877;39.750;-104.894;2022-07-25T03:35:25;84199.53;;;20.72;47.00
70437;BME280;57877;39.750;-104.894;2022-07-25T03:37:51;84205.79;;;19.86;47.32
70437;BME280;57877;39.750;-104.894;2022-07-25T03:40:16;84209.48;;;20.42;47.15
70437;BME280;57877;39.750;-104.894;2022-07-25T03:42:41;84211.34;;;20.25;47.37
70437;BME280;57877;39.750;-104.894;2022-07-25T03:45:08;84218.22;;;20.40;47.75
70437;BME280;57877;39.750;-104.894;2022-07-25T03:47:31;84225.83;;;20.23;48.19
70437;BME280;57877;39.750;-104.894;2022-07-25T03:49:56;84226.37;;;20.29;48.19
70437;BME280;57877;39.750;-104.894;2022-07-25T03:52:22;84224.03;;;20.52;47.85
70437;BME280;57877;39.750;-104.894;2022-07-25T03:54:47;84220.49;;;20.31;48.03
70437;BME280;57877;39.750;-104.894;2022-07-25T03:57:13;84217.06;;;20.58;47.83
70437;BME280;57877;39.750;-104.894;2022-07-25T03:59:39;84216.01;;;19.86;47.99
70437;BME280;57877;39.750;-104.894;2022-07-25T04:02:04;84215.67;;;20.35;47.54
70437;BME280;57877;39.750;-104.894;2022-07-25T04:04:29;84217.57;;;19.90;48.42
70437;BME280;57877;39.750;-104.894;2022-07-25T04:06:54;84219.01;;;20.27;47.74
70437;BME280;57877;39.750;-104.894;2022-07-25T04:09:19;84217.18;;;20.51;47.66
70437;BME280;57877;39.750;-104.894;2022-07-25T04:11:44;84222.41;;;20.20;48.01
70437;BME280;57877;39.750;-104.894;2022-07-25T04:14:09;84223.86;;;20.17;48.04
70437;BME280;57877;39.750;-104.894;2022-07-25T04:16:34;84221.02;;;19.81;48.35
70437;BME280;57877;39.750;-104.894;2022-07-25T04:18:59;84218.72;;;19.64;49.04
70437;BME280;57877;39.750;-104.894;2022-07-25T04:21:24;84211.71;;;19.45;50.17
70437;BME280;57877;39.750;-104.894;2022-07-25T04:23:49;84204.41;;;19.58;49.80
70437;BME280;57877;39.750;-104.894;2022-07-25T04:26:15;84197.51;;;19.15;50.87
70437;BME280;57877;39.750;-104.894;2022-07-25T04:28:41;84192.50;;;19.19;50.60
70437;BME280;57877;39.750;-104.894;2022-07-25T04:31:07;84185.36;;;18.90;50.87
70437;BME280;57877;39.750;-104.894;2022-07-25T04:33:36;84180.33;;;19.33;50.40
70437;BME280;57877;39.750;-104.894;2022-07-25T04:35:59;84173.69;;;19.41;49.72
70437;BME280;57877;39.750;-104.894;2022-07-25T04:38:25;84174.16;;;19.72;48.94
70437;BME280;57877;39.750;-104.894;2022-07-25T04:40:50;84170.23;;;19.28;49.15
70437;BME280;57877;39.750;-104.894;2022-07-25T04:43:15;84165.75;;;18.61;50.26
70437;BME280;57877;39.750;-104.894;2022-07-25T04:45:41;84168.62;;;19.39;48.73
70437;BME280;57877;39.750;-104.894;2022-07-25T04:48:07;84171.25;;;19.64;48.42
70437;BME280;57877;39.750;-104.894;2022-07-25T04:50:33;84180.56;;;19.45;48.69
70437;BME280;57877;39.750;-104.894;2022-07-25T04:52:59;84186.31;;;19.23;49.07
70437;BME280;57877;39.750;-104.894;2022-07-25T04:55:25;84188.59;;;19.36;48.89
70437;BME280;57877;39.750;-104.894;2022-07-25T04:57:50;84191.34;;;18.97;48.68
70437;BME280;57877;39.750;-104.894;2022-07-25T05:00:16;84192.97;;;19.17;48.68
70437;BME280;57877;39.750;-104.894;2022-07-25T05:02:41;84193.60;;;19.21;48.61
70437;BME280;57877;39.750;-104.894;2022-07-25T05:05:08;84194.11;;;19.38;48.18
70437;BME280;57877;39.750;-104.894;2022-07-25T05:07:32;84194.58;;;19.23;48.35
70437;BME280;57877;39.750;-104.894;2022-07-25T05:09:57;84193.54;;;19.71;47.80
70437;BME280;57877;39.750;-104.894;2022-07-25T05:12:24;84187.04;;;19.44;47.61
70437;BME280;57877;39.750;-104.894;2022-07-25T05:14:50;84183.18;;;19.73;47.39
70437;BME280;57877;39.750;-104.894;2022-07-25T05:17:15;84178.64;;;19.35;48.16
70437;BME280;57877;39.750;-104.894;2022-07-25T05:19:40;84172.11;;;19.17;48.76
70437;BME280;57877;39.750;-104.894;2022-07-25T05:22:05;84164.87;;;19.35;48.28
70437;BME280;57877;39.750;-104.894;2022-07-25T05:24:33;84164.70;;;19.25;48.34
70437;BME280;57877;39.750;-104.894;2022-07-25T05:26:56;84164.28;;;19.19;48.53
70437;BME280;57877;39.750;-104.894;2022-07-25T05:29:22;84163.50;;;19.10;48.30
70437;BME280;57877;39.750;-104.894;2022-07-25T05:31:46;84161.49;;;19.03;48.24
70437;BME280;57877;39.750;-104.894;2022-07-25T05:34:12;84155.18;;;19.50;48.16
70437;BME280;57877;39.750;-104.894;2022-07-25T05:36:36;84159.22;;;19.73;47.55
70437;BME280;57877;39.750;-104.894;2022-07-25T05:39:02;84174.12;;;19.45;47.57
70437;BME280;57877;39.750;-104.894;2022-07-25T05:41:27;84188.56;;;19.60;47.48
70437;BME280;57877;39.750;-104.894;2022-07-25T05:43:54;84199.88;;;19.69;47.50
70437;BME280;57877;39.750;-104.894;2022-07-25T05:46:19;84197.85;;;19.47;47.91
70437;BME280;57877;39.750;-104.894;2022-07-25T05:48:45;84198.93;;;19.60;47.50
70437;BME280;57877;39.750;-104.894;2022-07-25T05:51:11;84203.98;;;19.61;47.75
70437;BME280;57877;39.750;-104.894;2022-07-25T05:53:37;84211.77;;;19.77;47.72
70437;BME280;57877;39.750;-104.894;2022-07-25T05:56:03;84213.04;;;19.69;47.86
70437;BME280;57877;39.750;-104.894;2022-07-25T05:58:29;84214.18;;;19.79;47.59
70437;BME280;57877;39.750;-104.894;2022-07-25T06:00:55;84211.26;;;19.88;47.54
70437;BME280;57877;39.750;-104.894;2022-07-25T06:03:20;84205.85;;;19.80;47.60
70437;BME280;57877;39.750;-104.894;2022-07-25T06:05:45;84202.14;;;19.92;47.74
70437;BME280;57877;39.750;-104.894;2022-07-25T06:08:10;84202.14;;;19.91;47.43
70437;BME280;57877;39.750;-104.894;2022-07-25T06:10:35;84201.25;;;19.97;47.31
70437;BME280;57877;39.750;-104.894;2022-07-25T06:13:00;84198.32;;;19.85;47.45
70437;BME280;57877;39.750;-104.894;2022-07-25T06:15:25;84194.18;;;19.84;47.52
70437;BME280;57877;39.750;-104.894;2022-07-25T06:17:50;84187.47;;;19.96;47.27
70437;BME280;57877;39.750;-104.894;2022-07-25T06:20:16;84188.03;;;19.92;47.23
70437;BME280;57877;39.750;-104.894;2022-07-25T06:22:42;84185.30;;;19.81;47.63
70437;BME280;57877;39.750;-104.894;2022-07-25T06:25:08;84179.35;;;19.57;48.12
70437;BME280;57877;39.750;-104.894;2022-07-25T06:27:32;84170.20;;;19.66;48.01
70437;BME280;57877;39.750;-104.894;2022-07-25T06:29:57;84166.34;;;19.68;47.75
70437;BME280;57877;39.750;-104.894;2022-07-25T06:32:23;84163.87;;;19.91;47.51
70437;BME280;57877;39.750;-104.894;2022-07-25T06:34:48;84165.69;;;19.75;47.67
70437;BME280;57877;39.750;-104.894;2022-07-25T06:37:14;84169.28;;;19.38;48.48
70437;BME280;57877;39.750;-104.894;2022-07-25T06:39:40;84168.06;;;19.36;48.74
70437;BME280;57877;39.750;-104.894;2022-07-25T06:42:07;84163.34;;;19.76;48.05
70437;BME280;57877;39.750;-104.894;2022-07-25T06:44:32;84163.02;;;19.89;47.90
70437;BME280;57877;39.750;-104.894;2022-07-25T06:46:56;84166.90;;;20.27;47.69
70437;BME280;57877;39.750;-104.894;2022-07-25T06:49:22;84172.31;;;19.78;47.86
70437;BME280;57877;39.750;-104.894;2022-07-25T06:51:48;84170.86;;;19.58;48.45
70437;BME280;57877;39.750;-104.894;2022-07-25T06:54:13;84165.40;;;19.68;48.27
70437;BME280;57877;39.750;-104.894;2022-07-25T06:56:38;84159.50;;;20.03;47.88
70437;BME280;57877;39.750;-104.894;2022-07-25T06:59:04;84158.02;;;20.03;47.76
70437;BME280;57877;39.750;-104.894;2022-07-25T07:01:29;84163.19;;;20.02;47.62
70437;BME280;57877;39.750;-104.894;2022-07-25T07:03:54;84164.00;;;20.12;47.34
70437;BME280;57877;39.750;-104.894;2022-07-25T07:06:19;84159.77;;;20.05;47.36
70437;BME280;57877;39.750;-104.894;2022-07-25T07:08:44;84152.21;;;20.07;47.51
70437;BME280;57877;39.750;-104.894;2022-07-25T07:11:10;84144.75;;;19.91;47.43
70437;BME280;57877;39.750;-104.894;2022-07-25T07:13:35;84143.04;;;20.04;47.66
70437;BME280;57877;39.750;-104.894;2022-07-25T07:16:01;84140.32;;;20.03;47.32
70437;BME280;57877;39.750;-104.894;2022-07-25T07:18:26;84138.13;;;20.34;46.97
70437;BME280;57877;39.750;-104.894;2022-07-25T07:20:51;84142.40;;;20.18;46.76
70437;BME280;57877;39.750;-104.894;2022-07-25T07:23:15;84147.59;;;20.30;46.98
70437;BME280;57877;39.750;-104.894;2022-07-25T07:25:40;84150.94;;;20.07;47.61
70437;BME280;57877;39.750;-104.894;2022-07-25T07:28:06;84150.20;;;20.27;47.38
70437;BME280;57877;39.750;-104.894;2022-07-25T07:30:32;84142.30;;;20.02;47.05
70437;BME280;57877;39.750;-104.894;2022-07-25T07:32:58;84133.58;;;20.02;47.55
70437;BME280;57877;39.750;-104.894;2022-07-25T07:35:22;84135.25;;;20.11;47.38
70437;BME280;57877;39.750;-104.894;2022-07-25T07:37:48;84130.52;;;20.24;47.37
70437;BME280;57877;39.750;-104.894;2022-07-25T07:40:15;84129.05;;;20.24;47.18
70437;BME280;57877;39.750;-104.894;2022-07-25T07:42:41;84123.04;;;20.27;47.27
70437;BME280;57877;39.750;-104.894;2022-07-25T07:45:11;84118.77;;;20.05;47.15
70437;BME280;57877;39.750;-104.894;2022-07-25T07:47:31;84111.95;;;20.18;46.92
70437;BME280;57877;39.750;-104.894;2022-07-25T07:49:57;84103.20;;;19.57;47.58
70437;BME280;57877;39.750;-104.894;2022-07-25T07:52:23;84098.31;;;20.19;47.31
70437;BME280;57877;39.750;-104.894;2022-07-25T07:54:48;84097.71;;;20.12;47.20
70437;BME280;57877;39.750;-104.894;2022-07-25T07:57:13;84096.86;;;20.17;47.23
70437;BME280;57877;39.750;-104.894;2022-07-25T07:59:39;84095.03;;;20.53;46.98
70437;BME280;57877;39.750;-104.894;2022-07-25T08:02:05;84098.71;;;20.44;46.82
70437;BME280;57877;39.750;-104.894;2022-07-25T08:04:31;84099.29;;;20.54;46.73
70437;BME280;57877;39.750;-104.894;2022-07-25T08:06:56;84098.14;;;20.54;46.67
70437;BME280;57877;39.750;-104.894;2022-07-25T08:09:22;84095.09;;;20.45;47.00
70437;BME280;57877;39.750;-104.894;2022-07-25T08:11:48;84088.85;;;20.51;47.07
70437;BME280;57877;39.750;-104.894;2022-07-25T08:14:14;84083.75;;;20.36;47.09
70437;BME280;57877;39.750;-104.894;2022-07-25T08:16:40;84080.95;;;20.43;47.35
70437;BME280;57877;39.750;-104.894;2022-07-25T08:19:06;84080.95;;;20.03;47.48
70437;BME280;57877;39.750;-104.894;2022-07-25T08:21:32;84076.27;;;19.75;47.74
70437;BME280;57877;39.750;-104.894;2022-07-25T08:23:58;84073.50;;;19.82;47.74
70437;BME280;57877;39.750;-104.894;2022-07-25T08:26:24;84074.96;;;19.96;47.59
70437;BME280;57877;39.750;-104.894;2022-07-25T08:28:50;84068.89;;;19.74;47.66
70437;BME280;57877;39.750;-104.894;2022-07-25T08:31:16;84068.69;;;20.08;47.43
70437;BME280;57877;39.750;-104.894;2022-07-25T08:33:42;84073.23;;;20.15;47.33
70437;BME280;57877;39.750;-104.894;2022-07-25T08:36:08;84074.89;;;19.88;47.46
70437;BME280;57877;39.750;-104.894;2022-07-25T08:38:34;84073.70;;;19.76;47.60
70437;BME280;57877;39.750;-104.894;2022-07-25T08:41:00;84069.53;;;19.80;47.69
70437;BME280;57877;39.750;-104.894;2022-07-25T08:43:26;84071.60;;;19.84;47.55
70437;BME280;57877;39.750;-104.894;2022-07-25T08:45:53;84071.00;;;19.42;48.33
70437;BME280;57877;39.750;-104.894;2022-07-25T08:48:20;84070.01;;;19.00;48.65
70437;BME280;57877;39.750;-104.894;2022-07-25T08:50:46;84070.02;;;19.47;48.80
70437;BME280;57877;39.750;-104.894;2022-07-25T08:53:10;84065.12;;;19.21;48.92
70437;BME280;57877;39.750;-104.894;2022-07-25T08:55:36;84062.06;;;19.41;48.70
70437;BME280;57877;39.750;-104.894;2022-07-25T08:58:02;84063.83;;;19.55;48.47
70437;BME280;57877;39.750;-104.894;2022-07-25T09:00:28;84068.20;;;19.24;48.67
70437;BME280;57877;39.750;-104.894;2022-07-25T09:02:56;84070.84;;;19.69;48.04
70437;BME280;57877;39.750;-104.894;2022-07-25T09:05:20;84070.12;;;19.72;47.85
70437;BME280;57877;39.750;-104.894;2022-07-25T09:07:46;84065.49;;;19.79;47.67
70437;BME280;57877;39.750;-104.894;2022-07-25T09:10:13;84069.66;;;19.53;47.57
70437;BME280;57877;39.750;-104.894;2022-07-25T09:12:38;84079.26;;;19.39;47.70
70437;BME280;57877;39.750;-104.894;2022-07-25T09:15:05;84082.95;;;19.38;47.79
70437;BME280;57877;39.750;-104.894;2022-07-25T09:17:30;84080.67;;;19.43;47.65
70437;BME280;57877;39.750;-104.894;2022-07-25T09:19:56;84075.42;;;19.16;48.17
70437;BME280;57877;39.750;-104.894;2022-07-25T09:22:23;84072.94;;;19.26;47.85
70437;BME280;57877;39.750;-104.894;2022-07-25T09:24:48;84066.68;;;19.31;47.80
70437;BME280;57877;39.750;-104.894;2022-07-25T09:27:14;84064.75;;;19.51;47.78
70437;BME280;57877;39.750;-104.894;2022-07-25T09:29:39;84063.36;;;19.44;47.82
70437;BME280;57877;39.750;-104.894;2022-07-25T09:34:34;84056.23;;;19.17;48.14
70437;BME280;57877;39.750;-104.894;2022-07-25T09:36:55;84057.97;;;19.28;47.98
70437;BME280;57877;39.750;-104.894;2022-07-25T09:39:20;84054.36;;;19.40;47.97
70437;BME280;57877;39.750;-104.894;2022-07-25T09:41:46;84055.69;;;19.14;48.77
70437;BME280;57877;39.750;-104.894;2022-07-25T09:44:17;84057.85;;;18.90;48.31
70437;BME280;57877;39.750;-104.894;2022-07-25T09:46:38;84057.03;;;19.06;48.78
70437;BME280;57877;39.750;-104.894;2022-07-25T09:49:04;84058.92;;;18.97;49.02
70437;BME280;57877;39.750;-104.894;2022-07-25T09:51:30;84059.94;;;18.47;48.84
70437;BME280;57877;39.750;-104.894;2022-07-25T09:53:56;84056.18;;;18.66;49.33
70437;BME280;57877;39.750;-104.894;2022-07-25T09:56:22;84053.05;;;18.72;49.38
70437;BME280;57877;39.750;-104.894;2022-07-25T09:58:48;84051.49;;;18.42;49.86
70437;BME280;57877;39.750;-104.894;2022-07-25T10:01:17;84059.64;;;18.59;49.37
70437;BME280;57877;39.750;-104.894;2022-07-25T10:03:48;84061.60;;;18.91;49.11
70437;BME280;57877;39.750;-104.894;2022-07-25T10:06:16;84065.57;;;18.94;49.09
70437;BME280;57877;39.750;-104.894;2022-07-25T10:08:35;84061.74;;;18.87;48.70
70437;BME280;57877;39.750;-104.894;2022-07-25T10:10:57;84056.76;;;18.71;48.62
70437;BME280;57877;39.750;-104.894;2022-07-25T10:13:28;84056.35;;;18.85;48.90
70437;BME280;57877;39.750;-104.894;2022-07-25T10:15:51;84057.29;;;18.66;48.98
70437;BME280;57877;39.750;-104.894;2022-07-25T10:18:17;84059.00;;;18.67;49.01
70437;BME280;57877;39.750;-104.894;2022-07-25T10:20:42;84058.34;;;18.92;49.08
70437;BME280;57877;39.750;-104.894;2022-07-25T10:25:34;84047.45;;;18.60;49.21
70437;BME280;57877;39.750;-104.894;2022-07-25T10:28:06;84043.92;;;18.51;49.38
70437;BME280;57877;39.750;-104.894;2022-07-25T10:30:26;84040.14;;;18.45;49.51
70437;BME280;57877;39.750;-104.894;2022-07-25T10:32:55;84043.17;;;18.56;49.21
70437;BME280;57877;39.750;-104.894;2022-07-25T10:35:16;84043.42;;;18.73;48.76
70437;BME280;57877;39.750;-104.894;2022-07-25T10:37:40;84044.53;;;18.64;48.99
70437;BME280;57877;39.750;-104.894;2022-07-25T10:40:07;84045.36;;;18.57;48.83
70437;BME280;57877;39.750;-104.894;2022-07-25T10:42:32;84045.61;;;18.36;49.05
70437;BME280;57877;39.750;-104.894;2022-07-25T10:44:57;84043.67;;;18.62;49.22
70437;BME280;57877;39.750;-104.894;2022-07-25T10:47:23;84039.78;;;18.54;49.47
70437;BME280;57877;39.750;-104.894;2022-07-25T10:49:47;84035.89;;;18.54;49.31
70437;BME280;57877;39.750;-104.894;2022-07-25T10:52:14;84037.99;;;18.50;49.30
70437;BME280;57877;39.750;-104.894;2022-07-25T10:54:38;84040.66;;;18.80;49.16
70437;BME280;57877;39.750;-104.894;2022-07-25T10:57:05;84043.40;;;18.69;49.03
70437;BME280;57877;39.750;-104.894;2022-07-25T10:59:31;84041.31;;;18.49;49.41
70437;BME280;57877;39.750;-104.894;2022-07-25T11:01:53;84042.25;;;18.49;49.43
70437;BME280;57877;39.750;-104.894;2022-07-25T11:04:18;84041.27;;;18.60;49.05
70437;BME280;57877;39.750;-104.894;2022-07-25T11:06:44;84040.47;;;18.65;48.86
70437;BME280;57877;39.750;-104.894;2022-07-25T11:09:14;84030.95;;;18.31;49.53
70437;BME280;57877;39.750;-104.894;2022-07-25T11:11:38;84030.33;;;18.31;49.76
70437;BME280;57877;39.750;-104.894;2022-07-25T11:14:02;84030.55;;;18.28;49.68
70437;BME280;57877;39.750;-104.894;2022-07-25T11:16:27;84032.37;;;18.43;49.57
70437;BME280;57877;39.750;-104.894;2022-07-25T11:18:53;84031.73;;;18.08;49.34
70437;BME280;57877;39.750;-104.894;2022-07-25T11:21:18;84033.03;;;18.33;49.56
70437;BME280;57877;39.750;-104.894;2022-07-25T11:23:49;84031.97;;;18.18;49.90
70437;BME280;57877;39.750;-104.894;2022-07-25T11:26:11;84034.98;;;18.10;50.42
70437;BME280;57877;39.750;-104.894;2022-07-25T11:28:40;84033.23;;;17.90;50.92
70437;BME280;57877;39.750;-104.894;2022-07-25T11:31:03;84032.54;;;17.91;50.87
70437;BME280;57877;39.750;-104.894;2022-07-25T11:33:27;84030.12;;;17.92;50.90
70437;BME280;57877;39.750;-104.894;2022-07-25T11:35:53;84031.55;;;18.19;50.81
70437;BME280;57877;39.750;-104.894;2022-07-25T11:38:19;84035.04;;;17.87;50.85
70437;BME280;57877;39.750;-104.894;2022-07-25T11:40:45;84036.86;;;17.73;50.65
70437;BME280;57877;39.750;-104.894;2022-07-25T11:43:18;84038.67;;;18.20;50.09
70437;BME280;57877;39.750;-104.894;2022-07-25T11:45:37;84038.29;;;18.01;49.73
70437;BME280;57877;39.750;-104.894;2022-07-25T11:48:05;84037.03;;;18.35;49.53
70437;BME280;57877;39.750;-104.894;2022-07-25T11:50:30;84039.90;;;18.09;49.50
70437;BME280;57877;39.750;-104.894;2022-07-25T11:52:58;84035.51;;;18.25;49.09
70437;BME280;57877;39.750;-104.894;2022-07-25T11:55:27;84040.08;;;18.05;49.45
70437;BME280;57877;39.750;-104.894;2022-07-25T11:57:46;84037.02;;;18.02;49.51
70437;BME280;57877;39.750;-104.894;2022-07-25T12:00:17;84036.60;;;18.14;49.58
70437;BME280;57877;39.750;-104.894;2022-07-25T12:02:38;84031.77;;;17.93;49.45
70437;BME280;57877;39.750;-104.894;2022-07-25T12:05:07;84032.79;;;18.17;49.30
70437;BME280;57877;39.750;-104.894;2022-07-25T12:07:37;84034.97;;;17.99;49.66
70437;BME280;57877;39.750;-104.894;2022-07-25T12:09:57;84046.48;;;17.88;49.14
70437;BME280;57877;39.750;-104.894;2022-07-25T12:12:22;84052.92;;;18.19;48.97
70437;BME280;57877;39.750;-104.894;2022-07-25T12:14:48;84057.35;;;18.27;48.78
70437;BME280;57877;39.750;-104.894;2022-07-25T12:17:15;84052.98;;;18.37;48.65
70437;BME280;57877;39.750;-104.894;2022-07-25T12:19:44;84052.79;;;18.09;48.80
70437;BME280;57877;39.750;-104.894;2022-07-25T12:22:06;84051.47;;;18.13;48.94
70437;BME280;57877;39.750;-104.894;2022-07-25T12:24:32;84047.56;;;18.41;48.19
70437;BME280;57877;39.750;-104.894;2022-07-25T12:26:58;84041.99;;;18.32;48.15